sensor_id;sensor_type;location;lat;lon;timestamp;P1;durP1;ratioP1;P2;durP2;ratioP2
3149;SDS011;32503;47.748;8.960;2022-10-17T00:00:56;2.30;;;2.20;;
3149;SDS011;32503;47.748;8.960;2022-10-17T00:03:25;2.00;;;1.90;;
3149;SDS011;32503;47.748;8.960;2022-10-17T00:05:52;2.63;;;2.43;;
3149;SDS011;32503;47.748;8.960;2022-10-17T00:08:19;1.73;;;1.63;;
3149;SDS011;32503;47.748;8.960;2022-10-17T00:10:54;2.90;;;2.70;;
3149;SDS011;32503;47.748;8.960;2022-10-17T00:13:22;3.00;;;2.73;;
3149;SDS011;32503;47.748;8.960;2022-10-17T00:15:49;2.20;;;2.10;;
3149;SDS011;32503;47.748;8.960;2022-10-17T00:18:17;2.97;;;2.77;;
3149;SDS011;32503;47.748;8.960;2022-10-17T00:20:45;2.53;;;2.43;;
3149;SDS011;32503;47.748;8.960;2022-10-17T00:23:12;2.73;;;2.63;;
3149;SDS011;32503;47.748;8.960;2022-10-17T00:25:39;2.37;;;2.27;;
3149;SDS011;32503;47.748;8.960;2022-10-17T00:28:07;2.33;;;2.17;;
3149;SDS011;32503;47.748;8.960;2022-10-17T00:30:35;2.77;;;2.67;;
3149;SDS011;32503;47.748;8.960;2022-10-17T00:33:02;2.50;;;2.30;;
3149;SDS011;32503;47.748;8.960;2022-10-17T00:35:29;2.87;;;2.67;;
3149;SDS011;32503;47.748;8.960;2022-10-17T00:37:57;2.77;;;2.40;;
3149;SDS011;32503;47.748;8.960;2022-10-17T00:40:24;5.73;;;2.80;;
3149;SDS011;32503;47.748;8.960;2022-10-17T00:42:51;3.27;;;2.50;;
3149;SDS011;32503;47.748;8.960;2022-10-17T00:45:20;2.43;;;2.33;;
3149;SDS011;32503;47.748;8.960;2022-10-17T00:47:50;2.87;;;2.77;;
3149;SDS011;32503;47.748;8.960;2022-10-17T00:50:23;2.10;;;2.00;;
3149;SDS011;32503;47.748;8.960;2022-10-17T00:52:50;2.60;;;2.40;;
3149;SDS011;32503;47.748;8.960;2022-10-17T00:55:21;2.40;;;2.20;;
3149;SDS011;32503;47.748;8.960;2022-10-17T00:57:53;2.57;;;2.47;;
3149;SDS011;32503;47.748;8.960;2022-10-17T01:00:21;2.77;;;2.57;;
3149;SDS011;32503;47.748;8.960;2022-10-17T01:02:49;1.87;;;1.77;;
3149;SDS011;32503;47.748;8.960;2022-10-17T01:05:17;2.20;;;2.10;;
3149;SDS011;32503;47.748;8.960;2022-10-17T01:07:44;1.90;;;1.80;;
3149;SDS011;32503;47.748;8.960;2022-10-17T01:10:14;2.10;;;1.90;;
3149;SDS011;32503;47.748;8.960;2022-10-17T01:12:50;2.20;;;2.10;;
3149;SDS011;32503;47.748;8.960;2022-10-17T01:15:29;2.40;;;2.30;;
3149;SDS011;32503;47.748;8.960;2022-10-17T01:18:09;2.80;;;2.60;;
3149;SDS011;32503;47.748;8.960;2022-10-17T01:20:58;9.40;;;3.27;;
3149;SDS011;32503;47.748;8.960;2022-10-17T01:24:05;3.40;;;3.10;;
3149;SDS011;32503;47.748;8.960;2022-10-17T01:26:54;3.07;;;2.30;;
3149;SDS011;32503;47.748;8.960;2022-10-17T01:29:43;2.70;;;2.60;;
3149;SDS011;32503;47.748;8.960;2022-10-17T01:32:27;2.73;;;2.53;;
3149;SDS011;32503;47.748;8.960;2022-10-17T01:35:01;6.87;;;3.13;;
3149;SDS011;32503;47.748;8.960;2022-10-17T01:37:37;4.30;;;2.77;;
3149;SDS011;32503;47.748;8.960;2022-10-17T01:40:13;2.40;;;2.20;;
3149;SDS011;32503;47.748;8.960;2022-10-17T01:42:49;2.60;;;2.03;;
3149;SDS011;32503;47.748;8.960;2022-10-17T01:45:24;3.47;;;3.27;;
3149;SDS011;32503;47.748;8.960;2022-10-17T01:48:00;2.73;;;2.53;;
3149;SDS011;32503;47.748;8.960;2022-10-17T01:50:35;3.20;;;2.73;;
3149;SDS011;32503;47.748;8.960;2022-10-17T01:53:07;2.30;;;2.20;;
3149;SDS011;32503;47.748;8.960;2022-10-17T01:55:40;2.90;;;2.70;;
3149;SDS011;32503;47.748;8.960;2022-10-17T01:58:11;3.10;;;2.90;;
3149;SDS011;32503;47.748;8.960;2022-10-17T02:00:45;4.07;;;2.33;;
3149;SDS011;32503;47.748;8.960;2022-10-17T02:03:16;3.67;;;3.47;;
3149;SDS011;32503;47.748;8.960;2022-10-17T02:05:45;3.10;;;2.80;;
3149;SDS011;32503;47.748;8.960;2022-10-17T02:08:13;3.90;;;3.60;;
3149;SDS011;32503;47.748;8.960;2022-10-17T02:10:53;3.40;;;3.10;;
3149;SDS011;32503;47.748;8.960;2022-10-17T02:13:26;5.83;;;3.80;;
3149;SDS011;32503;47.748;8.960;2022-10-17T02:16:11;4.40;;;4.07;;
3149;SDS011;32503;47.748;8.960;2022-10-17T02:18:59;3.70;;;3.50;;
3149;SDS011;32503;47.748;8.960;2022-10-17T02:21:50;3.10;;;2.77;;
3149;SDS011;32503;47.748;8.960;2022-10-17T02:24:28;3.23;;;3.00;;
3149;SDS011;32503;47.748;8.960;2022-10-17T02:27:05;3.33;;;2.90;;
3149;SDS011;32503;47.748;8.960;2022-10-17T02:29:38;3.73;;;3.50;;
3149;SDS011;32503;47.748;8.960;2022-10-17T02:32:12;3.37;;;3.07;;
3149;SDS011;32503;47.748;8.960;2022-10-17T02:34:46;3.27;;;3.07;;
3149;SDS011;32503;47.748;8.960;2022-10-17T02:37:21;3.43;;;3.20;;
3149;SDS011;32503;47.748;8.960;2022-10-17T02:39:52;3.60;;;3.30;;
3149;SDS011;32503;47.748;8.960;2022-10-17T02:42:21;8.03;;;3.10;;
3149;SDS011;32503;47.748;8.960;2022-10-17T02:44:50;2.37;;;2.27;;
3149;SDS011;32503;47.748;8.960;2022-10-17T02:47:20;6.40;;;3.40;;
3149;SDS011;32503;47.748;8.960;2022-10-17T02:49:53;4.00;;;3.57;;
3149;SDS011;32503;47.748;8.960;2022-10-17T02:52:24;3.40;;;3.10;;
3149;SDS011;32503;47.748;8.960;2022-10-17T02:55:00;3.53;;;2.60;;
3149;SDS011;32503;47.748;8.960;2022-10-17T02:57:36;3.63;;;3.30;;
3149;SDS011;32503;47.748;8.960;2022-10-17T03:00:07;3.30;;;3.10;;
3149;SDS011;32503;47.748;8.960;2022-10-17T03:02:38;3.70;;;3.00;;
3149;SDS011;32503;47.748;8.960;2022-10-17T03:05:08;3.20;;;3.00;;
3149;SDS011;32503;47.748;8.960;2022-10-17T03:07:38;3.33;;;3.13;;
3149;SDS011;32503;47.748;8.960;2022-10-17T03:10:05;2.30;;;2.20;;
3149;SDS011;32503;47.748;8.960;2022-10-17T03:12:33;2.90;;;2.70;;
3149;SDS011;32503;47.748;8.960;2022-10-17T03:15:00;3.70;;;3.50;;
3149;SDS011;32503;47.748;8.960;2022-10-17T03:17:27;3.17;;;2.97;;
3149;SDS011;32503;47.748;8.960;2022-10-17T03:19:54;3.40;;;3.20;;
3149;SDS011;32503;47.748;8.960;2022-10-17T03:22:22;3.37;;;3.07;;
3149;SDS011;32503;47.748;8.960;2022-10-17T03:24:49;3.20;;;3.10;;
3149;SDS011;32503;47.748;8.960;2022-10-17T03:27:16;3.67;;;3.47;;
3149;SDS011;32503;47.748;8.960;2022-10-17T03:29:43;2.73;;;2.63;;
3149;SDS011;32503;47.748;8.960;2022-10-17T03:32:10;3.90;;;3.50;;
3149;SDS011;32503;47.748;8.960;2022-10-17T03:34:37;3.77;;;3.53;;
3149;SDS011;32503;47.748;8.960;2022-10-17T03:37:04;3.60;;;3.40;;
3149;SDS011;32503;47.748;8.960;2022-10-17T03:39:33;3.60;;;3.40;;
3149;SDS011;32503;47.748;8.960;2022-10-17T03:42:00;5.23;;;3.97;;
3149;SDS011;32503;47.748;8.960;2022-10-17T03:44:27;3.20;;;2.90;;
3149;SDS011;32503;47.748;8.960;2022-10-17T03:46:54;5.20;;;4.80;;
3149;SDS011;32503;47.748;8.960;2022-10-17T03:49:21;5.40;;;3.73;;
3149;SDS011;32503;47.748;8.960;2022-10-17T03:51:48;3.13;;;2.93;;
3149;SDS011;32503;47.748;8.960;2022-10-17T03:54:14;3.43;;;3.23;;
3149;SDS011;32503;47.748;8.960;2022-10-17T03:56:43;2.87;;;2.67;;
3149;SDS011;32503;47.748;8.960;2022-10-17T03:59:11;3.53;;;3.23;;
3149;SDS011;32503;47.748;8.960;2022-10-17T04:01:39;3.00;;;2.80;;
3149;SDS011;32503;47.748;8.960;2022-10-17T04:04:06;3.50;;;2.90;;
3149;SDS011;32503;47.748;8.960;2022-10-17T04:06:34;2.43;;;2.33;;
3149;SDS011;32503;47.748;8.960;2022-10-17T04:09:02;3.43;;;3.23;;
3149;SDS011;32503;47.748;8.960;2022-10-17T04:11:31;3.10;;;2.90;;
3149;SDS011;32503;47.748;8.960;2022-10-17T04:13:59;3.70;;;3.40;;
3149;SDS011;32503;47.748;8.960;2022-10-17T04:16:26;4.00;;;3.80;;
3149;SDS011;32503;47.748;8.960;2022-10-17T04:18:55;3.83;;;3.63;;
3149;SDS011;32503;47.748;8.960;2022-10-17T04:21:24;3.93;;;3.70;;
3149;SDS011;32503;47.748;8.960;2022-10-17T04:23:52;6.53;;;3.90;;
3149;SDS011;32503;47.748;8.960;2022-10-17T04:26:20;3.77;;;3.57;;
3149;SDS011;32503;47.748;8.960;2022-10-17T04:28:48;4.43;;;4.03;;
3149;SDS011;32503;47.748;8.960;2022-10-17T04:31:17;3.20;;;3.00;;
3149;SDS011;32503;47.748;8.960;2022-10-17T04:33:45;2.77;;;2.67;;
3149;SDS011;32503;47.748;8.960;2022-10-17T04:36:14;3.43;;;3.23;;
3149;SDS011;32503;47.748;8.960;2022-10-17T04:38:43;3.40;;;3.20;;
3149;SDS011;32503;47.748;8.960;2022-10-17T04:41:11;3.80;;;3.53;;
3149;SDS011;32503;47.748;8.960;2022-10-17T04:43:40;2.97;;;2.77;;
3149;SDS011;32503;47.748;8.960;2022-10-17T04:46:08;3.00;;;2.80;;
3149;SDS011;32503;47.748;8.960;2022-10-17T04:48:41;4.43;;;3.70;;
3149;SDS011;32503;47.748;8.960;2022-10-17T04:51:10;3.57;;;3.30;;
3149;SDS011;32503;47.748;8.960;2022-10-17T04:53:39;3.13;;;2.73;;
3149;SDS011;32503;47.748;8.960;2022-10-17T04:56:07;3.80;;;3.60;;
3149;SDS011;32503;47.748;8.960;2022-10-17T04:58:36;3.27;;;3.07;;
3149;SDS011;32503;47.748;8.960;2022-10-17T05:01:04;2.87;;;2.63;;
3149;SDS011;32503;47.748;8.960;2022-10-17T05:03:32;2.70;;;2.50;;
3149;SDS011;32503;47.748;8.960;2022-10-17T05:06:04;3.73;;;3.50;;
3149;SDS011;32503;47.748;8.960;2022-10-17T05:08:33;2.80;;;2.60;;
3149;SDS011;32503;47.748;8.960;2022-10-17T05:11:00;2.43;;;2.33;;
3149;SDS011;32503;47.748;8.960;2022-10-17T05:13:28;3.20;;;3.00;;
3149;SDS011;32503;47.748;8.960;2022-10-17T05:15:57;3.37;;;3.17;;
3149;SDS011;32503;47.748;8.960;2022-10-17T05:18:25;2.20;;;2.10;;
3149;SDS011;32503;47.748;8.960;2022-10-17T05:20:52;3.33;;;3.13;;
3149;SDS011;32503;47.748;8.960;2022-10-17T05:23:21;3.50;;;3.30;;
3149;SDS011;32503;47.748;8.960;2022-10-17T05:25:52;3.70;;;3.50;;
3149;SDS011;32503;47.748;8.960;2022-10-17T05:28:20;3.20;;;3.10;;
3149;SDS011;32503;47.748;8.960;2022-10-17T05:30:47;3.17;;;2.93;;
3149;SDS011;32503;47.748;8.960;2022-10-17T05:33:14;3.43;;;3.23;;
3149;SDS011;32503;47.748;8.960;2022-10-17T05:35:41;4.80;;;4.50;;
3149;SDS011;32503;47.748;8.960;2022-10-17T05:38:08;4.83;;;4.40;;
3149;SDS011;32503;47.748;8.960;2022-10-17T05:40:37;4.10;;;3.80;;
3149;SDS011;32503;47.748;8.960;2022-10-17T05:43:04;6.00;;;5.40;;
3149;SDS011;32503;47.748;8.960;2022-10-17T05:45:31;3.13;;;3.03;;
3149;SDS011;32503;47.748;8.960;2022-10-17T05:47:58;4.33;;;3.93;;
3149;SDS011;32503;47.748;8.960;2022-10-17T05:50:25;3.90;;;3.60;;
3149;SDS011;32503;47.748;8.960;2022-10-17T05:52:52;3.47;;;3.23;;
3149;SDS011;32503;47.748;8.960;2022-10-17T05:55:19;3.73;;;3.53;;
3149;SDS011;32503;47.748;8.960;2022-10-17T05:57:49;3.13;;;2.93;;
3149;SDS011;32503;47.748;8.960;2022-10-17T06:00:16;4.47;;;4.17;;
3149;SDS011;32503;47.748;8.960;2022-10-17T06:02:44;3.57;;;3.27;;
3149;SDS011;32503;47.748;8.960;2022-10-17T06:05:12;3.40;;;3.10;;
3149;SDS011;32503;47.748;8.960;2022-10-17T06:07:39;3.40;;;3.20;;
3149;SDS011;32503;47.748;8.960;2022-10-17T06:10:07;3.80;;;3.50;;
3149;SDS011;32503;47.748;8.960;2022-10-17T06:12:36;3.70;;;3.50;;
3149;SDS011;32503;47.748;8.960;2022-10-17T06:15:05;3.07;;;2.90;;
3149;SDS011;32503;47.748;8.960;2022-10-17T06:17:33;2.73;;;2.63;;
3149;SDS011;32503;47.748;8.960;2022-10-17T06:20:01;3.47;;;3.27;;
3149;SDS011;32503;47.748;8.960;2022-10-17T06:22:29;3.23;;;3.03;;
3149;SDS011;32503;47.748;8.960;2022-10-17T06:24:56;4.10;;;3.90;;
3149;SDS011;32503;47.748;8.960;2022-10-17T06:27:23;3.93;;;3.63;;
3149;SDS011;32503;47.748;8.960;2022-10-17T06:29:50;3.37;;;3.17;;
3149;SDS011;32503;47.748;8.960;2022-10-17T06:32:19;3.63;;;3.43;;
3149;SDS011;32503;47.748;8.960;2022-10-17T06:34:46;3.50;;;3.30;;
3149;SDS011;32503;47.748;8.960;2022-10-17T06:37:13;4.20;;;4.00;;
3149;SDS011;32503;47.748;8.960;2022-10-17T06:39:40;5.33;;;5.03;;
3149;SDS011;32503;47.748;8.960;2022-10-17T06:42:07;3.73;;;3.53;;
3149;SDS011;32503;47.748;8.960;2022-10-17T06:44:34;3.70;;;3.50;;
3149;SDS011;32503;47.748;8.960;2022-10-17T06:47:01;3.60;;;3.40;;
3149;SDS011;32503;47.748;8.960;2022-10-17T06:49:29;3.50;;;3.30;;
3149;SDS011;32503;47.748;8.960;2022-10-17T06:51:58;4.00;;;3.80;;
3149;SDS011;32503;47.748;8.960;2022-10-17T06:54:25;3.60;;;3.40;;
3149;SDS011;32503;47.748;8.960;2022-10-17T06:56:53;3.57;;;3.37;;
3149;SDS011;32503;47.748;8.960;2022-10-17T06:59:20;3.40;;;3.20;;
3149;SDS011;32503;47.748;8.960;2022-10-17T07:01:47;4.20;;;3.40;;
3149;SDS011;32503;47.748;8.960;2022-10-17T07:04:14;4.33;;;4.13;;
3149;SDS011;32503;47.748;8.960;2022-10-17T07:06:43;4.07;;;3.87;;
3149;SDS011;32503;47.748;8.960;2022-10-17T07:09:10;3.30;;;3.10;;
3149;SDS011;32503;47.748;8.960;2022-10-17T07:11:37;4.07;;;3.80;;
3149;SDS011;32503;47.748;8.960;2022-10-17T07:14:05;4.20;;;3.90;;
3149;SDS011;32503;47.748;8.960;2022-10-17T07:16:32;3.90;;;3.63;;
3149;SDS011;32503;47.748;8.960;2022-10-17T07:18:59;3.33;;;3.13;;
3149;SDS011;32503;47.748;8.960;2022-10-17T07:21:26;3.50;;;3.30;;
3149;SDS011;32503;47.748;8.960;2022-10-17T07:23:54;7.03;;;4.20;;
3149;SDS011;32503;47.748;8.960;2022-10-17T07:26:21;3.83;;;3.60;;
3149;SDS011;32503;47.748;8.960;2022-10-17T07:28:50;4.40;;;4.00;;
3149;SDS011;32503;47.748;8.960;2022-10-17T07:31:20;3.80;;;3.53;;
3149;SDS011;32503;47.748;8.960;2022-10-17T07:33:48;4.70;;;4.40;;
3149;SDS011;32503;47.748;8.960;2022-10-17T07:36:15;4.00;;;3.80;;
3149;SDS011;32503;47.748;8.960;2022-10-17T07:38:43;5.07;;;4.20;;
3149;SDS011;32503;47.748;8.960;2022-10-17T07:41:12;3.60;;;3.50;;
3149;SDS011;32503;47.748;8.960;2022-10-17T07:43:39;5.10;;;4.10;;
3149;SDS011;32503;47.748;8.960;2022-10-17T07:46:07;5.20;;;4.80;;
3149;SDS011;32503;47.748;8.960;2022-10-17T07:48:35;5.40;;;5.00;;
3149;SDS011;32503;47.748;8.960;2022-10-17T07:51:04;4.90;;;4.60;;
3149;SDS011;32503;47.748;8.960;2022-10-17T07:53:34;5.47;;;5.10;;
3149;SDS011;32503;47.748;8.960;2022-10-17T07:56:05;3.83;;;3.63;;
3149;SDS011;32503;47.748;8.960;2022-10-17T07:58:35;4.80;;;4.53;;
3149;SDS011;32503;47.748;8.960;2022-10-17T08:01:03;4.80;;;4.40;;
3149;SDS011;32503;47.748;8.960;2022-10-17T08:03:32;5.30;;;4.80;;
3149;SDS011;32503;47.748;8.960;2022-10-17T08:06:00;5.97;;;5.37;;
3149;SDS011;32503;47.748;8.960;2022-10-17T08:08:28;5.60;;;5.20;;
3149;SDS011;32503;47.748;8.960;2022-10-17T08:11:00;6.73;;;5.63;;
3149;SDS011;32503;47.748;8.960;2022-10-17T08:13:29;6.63;;;5.53;;
3149;SDS011;32503;47.748;8.960;2022-10-17T08:15:59;6.60;;;5.90;;
3149;SDS011;32503;47.748;8.960;2022-10-17T08:18:27;6.43;;;5.87;;
3149;SDS011;32503;47.748;8.960;2022-10-17T08:20:54;9.00;;;6.80;;
3149;SDS011;32503;47.748;8.960;2022-10-17T08:23:24;6.83;;;6.20;;
3149;SDS011;32503;47.748;8.960;2022-10-17T08:25:52;7.40;;;6.70;;
3149;SDS011;32503;47.748;8.960;2022-10-17T08:28:19;7.30;;;6.60;;
3149;SDS011;32503;47.748;8.960;2022-10-17T08:30:46;6.40;;;5.87;;
3149;SDS011;32503;47.748;8.960;2022-10-17T08:33:15;8.10;;;6.40;;
3149;SDS011;32503;47.748;8.960;2022-10-17T08:35:42;8.60;;;6.50;;
3149;SDS011;32503;47.748;8.960;2022-10-17T08:38:09;9.00;;;7.57;;
3149;SDS011;32503;47.748;8.960;2022-10-17T08:40:36;9.77;;;7.00;;
3149;SDS011;32503;47.748;8.960;2022-10-17T08:43:25;10.73;;;7.37;;
3149;SDS011;32503;47.748;8.960;2022-10-17T08:46:04;9.30;;;7.43;;
3149;SDS011;32503;47.748;8.960;2022-10-17T08:48:35;10.33;;;8.70;;
3149;SDS011;32503;47.748;8.960;2022-10-17T08:51:08;11.30;;;8.80;;
3149;SDS011;32503;47.748;8.960;2022-10-17T08:53:40;9.20;;;7.57;;
3149;SDS011;32503;47.748;8.960;2022-10-17T08:56:17;11.27;;;8.17;;
3149;SDS011;32503;47.748;8.960;2022-10-17T08:58:46;10.13;;;8.10;;
3149;SDS011;32503;47.748;8.960;2022-10-17T09:01:19;8.63;;;7.80;;
3149;SDS011;32503;47.748;8.960;2022-10-17T09:04:08;9.70;;;8.07;;
3149;SDS011;32503;47.748;8.960;2022-10-17T09:07:12;10.10;;;8.00;;
3149;SDS011;32503;47.748;8.960;2022-10-17T09:09:49;14.87;;;9.93;;
3149;SDS011;32503;47.748;8.960;2022-10-17T09:12:28;9.53;;;8.53;;
3149;SDS011;32503;47.748;8.960;2022-10-17T09:15:10;9.43;;;8.47;;
3149;SDS011;32503;47.748;8.960;2022-10-17T09:18:00;15.00;;;10.00;;
3149;SDS011;32503;47.748;8.960;2022-10-17T09:20:37;13.23;;;9.10;;
3149;SDS011;32503;47.748;8.960;2022-10-17T09:23:10;10.30;;;7.97;;
3149;SDS011;32503;47.748;8.960;2022-10-17T09:25:43;10.90;;;8.70;;
3149;SDS011;32503;47.748;8.960;2022-10-17T09:28:14;10.73;;;8.43;;
3149;SDS011;32503;47.748;8.960;2022-10-17T09:30:48;9.07;;;8.13;;
3149;SDS011;32503;47.748;8.960;2022-10-17T09:33:24;8.80;;;7.47;;
3149;SDS011;32503;47.748;8.960;2022-10-17T09:35:55;10.30;;;8.73;;
3149;SDS011;32503;47.748;8.960;2022-10-17T09:38:34;8.67;;;7.77;;
3149;SDS011;32503;47.748;8.960;2022-10-17T09:41:06;8.23;;;7.37;;
3149;SDS011;32503;47.748;8.960;2022-10-17T09:43:42;7.60;;;6.80;;
3149;SDS011;32503;47.748;8.960;2022-10-17T09:46:12;8.60;;;7.70;;
3149;SDS011;32503;47.748;8.960;2022-10-17T09:48:47;8.90;;;8.00;;
3149;SDS011;32503;47.748;8.960;2022-10-17T09:51:20;8.47;;;7.60;;
3149;SDS011;32503;47.748;8.960;2022-10-17T09:53:48;8.73;;;7.20;;
3149;SDS011;32503;47.748;8.960;2022-10-17T09:56:21;10.27;;;8.70;;
3149;SDS011;32503;47.748;8.960;2022-10-17T09:58:48;7.13;;;6.53;;
3149;SDS011;32503;47.748;8.960;2022-10-17T10:01:19;6.73;;;6.13;;
3149;SDS011;32503;47.748;8.960;2022-10-17T10:03:48;7.23;;;5.43;;
3149;SDS011;32503;47.748;8.960;2022-10-17T10:06:36;6.37;;;5.97;;
3149;SDS011;32503;47.748;8.960;2022-10-17T10:09:03;6.23;;;5.73;;
3149;SDS011;32503;47.748;8.960;2022-10-17T10:14:20;6.03;;;5.40;;
3149;SDS011;32503;47.748;8.960;2022-10-17T10:16:50;5.63;;;5.27;;
3149;SDS011;32503;47.748;8.960;2022-10-17T10:19:19;5.70;;;5.20;;
3149;SDS011;32503;47.748;8.960;2022-10-17T10:21:57;5.33;;;4.93;;
3149;SDS011;32503;47.748;8.960;2022-10-17T10:24:26;5.73;;;5.33;;
3149;SDS011;32503;47.748;8.960;2022-10-17T10:26:55;6.47;;;5.97;;
3149;SDS011;32503;47.748;8.960;2022-10-17T10:29:26;6.17;;;5.63;;
3149;SDS011;32503;47.748;8.960;2022-10-17T10:31:58;5.93;;;5.43;;
3149;SDS011;32503;47.748;8.960;2022-10-17T10:34:35;6.47;;;5.93;;
3149;SDS011;32503;47.748;8.960;2022-10-17T10:37:15;6.00;;;5.50;;
3149;SDS011;32503;47.748;8.960;2022-10-17T10:39:46;5.47;;;5.10;;
3149;SDS011;32503;47.748;8.960;2022-10-17T10:42:17;5.40;;;4.90;;
3149;SDS011;32503;47.748;8.960;2022-10-17T10:44:53;5.87;;;5.43;;
3149;SDS011;32503;47.748;8.960;2022-10-17T10:47:38;5.10;;;4.80;;
3149;SDS011;32503;47.748;8.960;2022-10-17T10:50:25;4.50;;;4.20;;
3149;SDS011;32503;47.748;8.960;2022-10-17T10:53:06;5.23;;;4.83;;
3149;SDS011;32503;47.748;8.960;2022-10-17T10:55:50;6.20;;;5.70;;
3149;SDS011;32503;47.748;8.960;2022-10-17T10:58:26;6.50;;;6.00;;
3149;SDS011;32503;47.748;8.960;2022-10-17T11:01:05;4.97;;;4.47;;
3149;SDS011;32503;47.748;8.960;2022-10-17T11:03:41;7.83;;;5.70;;
3149;SDS011;32503;47.748;8.960;2022-10-17T11:06:21;4.90;;;4.50;;
3149;SDS011;32503;47.748;8.960;2022-10-17T11:08:57;4.43;;;4.13;;
3149;SDS011;32503;47.748;8.960;2022-10-17T11:11:39;5.37;;;4.97;;
3149;SDS011;32503;47.748;8.960;2022-10-17T11:14:12;4.57;;;4.33;;
3149;SDS011;32503;47.748;8.960;2022-10-17T11:16:45;6.80;;;5.77;;
3149;SDS011;32503;47.748;8.960;2022-10-17T11:19:20;4.23;;;3.93;;
3149;SDS011;32503;47.748;8.960;2022-10-17T11:21:57;3.80;;;3.60;;
3149;SDS011;32503;47.748;8.960;2022-10-17T11:24:37;5.80;;;5.20;;
3149;SDS011;32503;47.748;8.960;2022-10-17T11:27:11;4.50;;;4.20;;
3149;SDS011;32503;47.748;8.960;2022-10-17T11:29:39;5.40;;;5.10;;
3149;SDS011;32503;47.748;8.960;2022-10-17T11:32:08;4.90;;;4.60;;
3149;SDS011;32503;47.748;8.960;2022-10-17T11:34:43;4.60;;;4.40;;
3149;SDS011;32503;47.748;8.960;2022-10-17T11:37:14;4.47;;;4.17;;
3149;SDS011;32503;47.748;8.960;2022-10-17T11:39:49;3.17;;;3.03;;
3149;SDS011;32503;47.748;8.960;2022-10-17T11:42:22;4.37;;;3.97;;
3149;SDS011;32503;47.748;8.960;2022-10-17T11:44:54;4.30;;;4.00;;
3149;SDS011;32503;47.748;8.960;2022-10-17T11:47:30;4.07;;;3.87;;
3149;SDS011;32503;47.748;8.960;2022-10-17T11:50:06;4.60;;;4.30;;
3149;SDS011;32503;47.748;8.960;2022-10-17T11:52:45;4.07;;;3.87;;
3149;SDS011;32503;47.748;8.960;2022-10-17T11:55:22;3.47;;;3.27;;
3149;SDS011;32503;47.748;8.960;2022-10-17T11:57:53;4.03;;;3.73;;
3149;SDS011;32503;47.748;8.960;2022-10-17T12:00:42;4.40;;;4.10;;
3149;SDS011;32503;47.748;8.960;2022-10-17T12:03:26;3.50;;;3.30;;
3149;SDS011;32503;47.748;8.960;2022-10-17T12:06:10;3.03;;;2.83;;
3149;SDS011;32503;47.748;8.960;2022-10-17T12:08:47;2.90;;;2.80;;
3149;SDS011;32503;47.748;8.960;2022-10-17T12:11:26;3.37;;;3.17;;
3149;SDS011;32503;47.748;8.960;2022-10-17T12:14:32;3.90;;;3.67;;
3149;SDS011;32503;47.748;8.960;2022-10-17T12:17:08;3.77;;;3.57;;
3149;SDS011;32503;47.748;8.960;2022-10-17T12:23:04;4.53;;;4.13;;
3149;SDS011;32503;47.748;8.960;2022-10-17T12:25:52;3.90;;;3.70;;
3149;SDS011;32503;47.748;8.960;2022-10-17T12:28:27;2.80;;;2.70;;
3149;SDS011;32503;47.748;8.960;2022-10-17T12:30:57;3.60;;;3.40;;
3149;SDS011;32503;47.748;8.960;2022-10-17T12:33:29;3.30;;;3.10;;
3149;SDS011;32503;47.748;8.960;2022-10-17T12:42:28;3.30;;;3.10;;
3149;SDS011;32503;47.748;8.960;2022-10-17T12:44:59;3.60;;;3.40;;
3149;SDS011;32503;47.748;8.960;2022-10-17T12:47:27;3.63;;;3.43;;
3149;SDS011;32503;47.748;8.960;2022-10-17T12:50:06;3.20;;;3.10;;
3149;SDS011;32503;47.748;8.960;2022-10-17T12:53:26;3.70;;;3.40;;
3149;SDS011;32503;47.748;8.960;2022-10-17T12:56:04;3.87;;;3.53;;
3149;SDS011;32503;47.748;8.960;2022-10-17T12:58:32;3.00;;;2.90;;
3149;SDS011;32503;47.748;8.960;2022-10-17T13:01:02;2.93;;;2.83;;
3149;SDS011;32503;47.748;8.960;2022-10-17T13:03:33;3.93;;;3.77;;
3149;SDS011;32503;47.748;8.960;2022-10-17T13:06:12;2.90;;;2.80;;
3149;SDS011;32503;47.748;8.960;2022-10-17T13:08:46;3.70;;;3.50;;
3149;SDS011;32503;47.748;8.960;2022-10-17T13:11:24;3.80;;;3.60;;
3149;SDS011;32503;47.748;8.960;2022-10-17T13:13:56;3.10;;;3.00;;
3149;SDS011;32503;47.748;8.960;2022-10-17T13:16:28;3.43;;;3.33;;
3149;SDS011;32503;47.748;8.960;2022-10-17T13:18:58;3.30;;;3.20;;
3149;SDS011;32503;47.748;8.960;2022-10-17T13:21:27;3.63;;;3.43;;
3149;SDS011;32503;47.748;8.960;2022-10-17T13:23:54;3.70;;;3.50;;
3149;SDS011;32503;47.748;8.960;2022-10-17T13:26:22;3.37;;;3.27;;
3149;SDS011;32503;47.748;8.960;2022-10-17T13:29:01;3.30;;;3.10;;
3149;SDS011;32503;47.748;8.960;2022-10-17T13:31:33;4.47;;;4.17;;
3149;SDS011;32503;47.748;8.960;2022-10-17T13:34:03;3.70;;;3.50;;
3149;SDS011;32503;47.748;8.960;2022-10-17T13:36:32;3.73;;;3.53;;
3149;SDS011;32503;47.748;8.960;2022-10-17T13:39:04;3.90;;;3.60;;
3149;SDS011;32503;47.748;8.960;2022-10-17T13:41:33;3.10;;;3.00;;
3149;SDS011;32503;47.748;8.960;2022-10-17T13:44:03;4.30;;;4.00;;
3149;SDS011;32503;47.748;8.960;2022-10-17T13:46:39;3.60;;;3.40;;
3149;SDS011;32503;47.748;8.960;2022-10-17T13:49:12;3.30;;;3.10;;
3149;SDS011;32503;47.748;8.960;2022-10-17T13:51:45;3.30;;;3.10;;
3149;SDS011;32503;47.748;8.960;2022-10-17T13:54:16;3.80;;;3.60;;
3149;SDS011;32503;47.748;8.960;2022-10-17T13:57:05;3.27;;;3.07;;
3149;SDS011;32503;47.748;8.960;2022-10-17T13:59:44;3.60;;;3.40;;
3149;SDS011;32503;47.748;8.960;2022-10-17T14:02:21;3.47;;;3.27;;
3149;SDS011;32503;47.748;8.960;2022-10-17T14:05:00;3.57;;;3.40;;
3149;SDS011;32503;47.748;8.960;2022-10-17T14:07:35;3.87;;;3.67;;
3149;SDS011;32503;47.748;8.960;2022-10-17T14:10:13;3.20;;;3.00;;
3149;SDS011;32503;47.748;8.960;2022-10-17T14:12:45;4.87;;;4.53;;
3149;SDS011;32503;47.748;8.960;2022-10-17T14:15:12;3.13;;;2.93;;
3149;SDS011;32503;47.748;8.960;2022-10-17T14:17:42;4.20;;;3.80;;
3149;SDS011;32503;47.748;8.960;2022-10-17T14:20:16;3.80;;;3.50;;
3149;SDS011;32503;47.748;8.960;2022-10-17T14:22:45;3.23;;;3.03;;
3149;SDS011;32503;47.748;8.960;2022-10-17T14:25:26;3.93;;;3.53;;
3149;SDS011;32503;47.748;8.960;2022-10-17T14:27:56;3.70;;;3.50;;
3149;SDS011;32503;47.748;8.960;2022-10-17T14:30:32;3.57;;;3.27;;
3149;SDS011;32503;47.748;8.960;2022-10-17T14:33:04;3.73;;;3.43;;
3149;SDS011;32503;47.748;8.960;2022-10-17T14:35:34;4.33;;;3.93;;
3149;SDS011;32503;47.748;8.960;2022-10-17T14:38:02;4.53;;;4.23;;
3149;SDS011;32503;47.748;8.960;2022-10-17T14:40:32;4.10;;;3.70;;
3149;SDS011;32503;47.748;8.960;2022-10-17T14:43:01;3.47;;;3.27;;
3149;SDS011;32503;47.748;8.960;2022-10-17T14:45:31;3.50;;;3.30;;
3149;SDS011;32503;47.748;8.960;2022-10-17T14:48:03;3.67;;;3.37;;
3149;SDS011;32503;47.748;8.960;2022-10-17T14:50:35;3.17;;;3.00;;
3149;SDS011;32503;47.748;8.960;2022-10-17T14:53:03;3.10;;;3.00;;
3149;SDS011;32503;47.748;8.960;2022-10-17T14:55:33;3.03;;;2.83;;
3149;SDS011;32503;47.748;8.960;2022-10-17T14:58:13;2.53;;;2.43;;
3149;SDS011;32503;47.748;8.960;2022-10-17T15:00:41;3.10;;;3.00;;
3149;SDS011;32503;47.748;8.960;2022-10-17T15:03:10;2.93;;;2.73;;
3149;SDS011;32503;47.748;8.960;2022-10-17T15:05:37;2.60;;;2.50;;
3149;SDS011;32503;47.748;8.960;2022-10-17T15:08:04;2.97;;;2.87;;
3149;SDS011;32503;47.748;8.960;2022-10-17T15:10:37;3.00;;;2.80;;
3149;SDS011;32503;47.748;8.960;2022-10-17T15:13:06;3.00;;;2.90;;
3149;SDS011;32503;47.748;8.960;2022-10-17T15:15:34;2.90;;;2.77;;
3149;SDS011;32503;47.748;8.960;2022-10-17T15:18:02;2.87;;;2.67;;
3149;SDS011;32503;47.748;8.960;2022-10-17T15:20:32;2.80;;;2.60;;
3149;SDS011;32503;47.748;8.960;2022-10-17T15:23:00;2.27;;;2.17;;
3149;SDS011;32503;47.748;8.960;2022-10-17T15:25:28;2.93;;;2.83;;
3149;SDS011;32503;47.748;8.960;2022-10-17T15:27:57;3.07;;;2.97;;
3149;SDS011;32503;47.748;8.960;2022-10-17T15:30:25;3.50;;;3.30;;
3149;SDS011;32503;47.748;8.960;2022-10-17T15:32:55;4.43;;;4.03;;
3149;SDS011;32503;47.748;8.960;2022-10-17T15:35:23;3.83;;;3.63;;
3149;SDS011;32503;47.748;8.960;2022-10-17T15:37:52;4.37;;;4.17;;
3149;SDS011;32503;47.748;8.960;2022-10-17T15:40:20;8.43;;;3.50;;